createdAt,value
2023-05-14T00:00:53.037Z,100762.06
2023-05-14T00:03:20.488Z,100754.44
2023-05-14T00:05:48.537Z,100752.41
2023-05-14T00:08:15.898Z,100750.22
2023-05-14T00:10:43.235Z,100748.50
2023-05-14T00:13:10.856Z,100739.66
2023-05-14T00:15:38.266Z,100744.97
2023-05-14T00:18:07.203Z,100741.63
2023-05-14T00:20:34.609Z,100737.47
2023-05-14T00:23:02.206Z,100732.88
2023-05-14T00:25:29.723Z,100733.19
2023-05-14T00:27:57.102Z,100727.09
2023-05-14T00:30:24.775Z,100719.03
2023-05-14T00:32:52.476Z,100718.03
2023-05-14T00:35:21.644Z,100724.50
2023-05-14T00:37:49.059Z,100716.13
2023-05-14T00:40:16.722Z,100714.00
2023-05-14T00:42:44.148Z,100706.75
2023-05-14T00:45:11.727Z,100699.44
2023-05-14T00:47:40.370Z,100699.63
2023-05-14T00:50:08.648Z,100693.88
2023-05-14T00:52:37.173Z,100694.00
2023-05-14T00:55:06.245Z,100691.38
2023-05-14T00:57:34.126Z,100689.03
2023-05-14T01:00:01.834Z,100689.22
2023-05-14T01:02:29.520Z,100674.81
2023-05-14T01:04:57.208Z,100682.75
2023-05-14T01:07:31.320Z,100683.06
2023-05-14T01:10:01.707Z,100673.47
2023-05-14T01:12:44.251Z,100678.38
2023-05-14T01:15:12.811Z,100673.84
2023-05-14T01:17:46.300Z,100672.38
2023-05-14T01:20:13.738Z,100677.88
2023-05-14T01:22:41.135Z,100672.34
2023-05-14T01:25:08.995Z,100665.22
2023-05-14T01:27:48.632Z,100669.38
2023-05-14T01:30:26.061Z,100667.00
2023-05-14T01:32:56.573Z,100654.81
2023-05-14T01:35:25.849Z,100654.88
2023-05-14T01:37:55.461Z,100660.44
2023-05-14T01:40:23.776Z,100644.22
2023-05-14T01:42:52.467Z,100645.75
2023-05-14T01:45:23.897Z,100638.75
2023-05-14T01:47:51.948Z,100638.09
2023-05-14T01:50:19.407Z,100638.00
2023-05-14T01:52:48.404Z,100636.22
2023-05-14T01:55:16.169Z,100631.41
2023-05-14T01:57:43.559Z,100635.41
2023-05-14T02:00:12.419Z,100636.97
2023-05-14T02:02:42.633Z,100636.22
2023-05-14T02:05:13.373Z,100632.09
2023-05-14T02:07:40.819Z,100627.59
2023-05-14T02:10:09.787Z,100630.72
2023-05-14T02:12:37.200Z,100631.03
2023-05-14T02:15:04.885Z,100631.31
2023-05-14T02:17:33.779Z,100625.97
2023-05-14T02:20:01.186Z,100624.72
2023-05-14T02:22:28.519Z,100626.25
2023-05-14T02:24:56.293Z,100624.19
2023-05-14T02:27:23.593Z,100623.91
2023-05-14T02:29:51.020Z,100620.91
2023-05-14T02:32:18.434Z,100622.53
2023-05-14T02:34:45.933Z,100613.78
2023-05-14T02:37:13.526Z,100614.34
2023-05-14T02:39:40.900Z,100606.91
2023-05-14T02:42:08.316Z,100607.47
2023-05-14T02:44:35.783Z,100599.00
2023-05-14T02:47:03.260Z,100602.06
2023-05-14T02:49:30.922Z,100596.88
2023-05-14T02:51:58.422Z,100598.53
2023-05-14T02:54:25.821Z,100595.78
2023-05-14T02:56:53.202Z,100594.25
2023-05-14T02:59:20.711Z,100594.44
2023-05-14T03:01:48.800Z,100597.38
2023-05-14T03:04:16.616Z,100595.00
2023-05-14T03:06:44.050Z,100591.81
2023-05-14T03:09:11.551Z,100586.63
2023-05-14T03:11:39.066Z,100589.72
2023-05-14T03:14:06.555Z,100575.69
2023-05-14T03:16:33.937Z,100578.66
2023-05-14T03:19:01.359Z,100578.38
2023-05-14T03:21:28.937Z,100577.34
2023-05-14T03:23:56.343Z,100580.78
2023-05-14T03:26:23.804Z,100574.28
2023-05-14T03:28:53.547Z,100575.31
2023-05-14T03:31:20.956Z,100567.59
2023-05-14T03:33:48.503Z,100579.72
2023-05-14T03:36:15.879Z,100567.19
2023-05-14T03:38:43.234Z,100578.50
2023-05-14T03:41:10.570Z,100586.06
2023-05-14T03:43:37.980Z,100585.31
2023-05-14T03:46:05.535Z,100585.34
2023-05-14T03:48:33.105Z,100593.53
2023-05-14T03:51:00.497Z,100589.47
2023-05-14T03:53:28.863Z,100585.88
2023-05-14T03:55:56.962Z,100587.25
2023-05-14T03:58:24.344Z,100581.75
2023-05-14T04:00:53.049Z,100583.53
2023-05-14T04:03:20.597Z,100583.38
2023-05-14T04:05:47.941Z,100574.06
2023-05-14T04:08:15.315Z,100577.59
2023-05-14T04:10:42.950Z,100583.97
2023-05-14T04:13:10.461Z,100581.53
2023-05-14T04:15:40.184Z,100574.09
2023-05-14T04:18:08.345Z,100576.16
2023-05-14T04:20:35.778Z,100579.72
2023-05-14T04:23:03.144Z,100577.34
2023-05-14T04:25:30.680Z,100572.66
2023-05-14T04:27:58.760Z,100569.84
2023-05-14T04:30:26.570Z,100577.28
2023-05-14T04:32:53.987Z,100571.13
2023-05-14T04:35:24.118Z,100579.59
2023-05-14T04:37:53.374Z,100575.53
2023-05-14T04:40:20.726Z,100579.03
2023-05-14T04:42:48.331Z,100583.25
2023-05-14T04:45:16.797Z,100590.16
2023-05-14T04:47:45.172Z,100591.19
2023-05-14T04:50:12.803Z,100595.66
2023-05-14T04:52:40.139Z,100595.91
2023-05-14T04:55:07.738Z,100598.97
2023-05-14T04:57:35.049Z,100600.25
2023-05-14T05:00:02.413Z,100593.16
2023-05-14T05:02:29.988Z,100597.66
2023-05-14T05:04:57.311Z,100603.03
2023-05-14T05:07:24.649Z,100597.78
2023-05-14T05:09:51.988Z,100588.00
2023-05-14T05:12:19.284Z,100586.66
2023-05-14T05:14:46.595Z,100583.00
2023-05-14T05:17:13.888Z,100589.66
2023-05-14T05:19:44.010Z,100587.97
2023-05-14T05:22:11.942Z,100590.94
2023-05-14T05:24:39.243Z,100584.25
2023-05-14T05:27:06.620Z,100593.41
2023-05-14T05:29:34.743Z,100587.50
2023-05-14T05:32:02.076Z,100587.16
2023-05-14T05:34:29.534Z,100585.56
2023-05-14T05:36:56.993Z,100586.47
2023-05-14T05:39:25.353Z,100587.59
2023-05-14T05:41:52.662Z,100589.28
2023-05-14T05:44:45.080Z,100585.50
2023-05-14T05:47:12.616Z,100594.34
2023-05-14T05:49:39.986Z,100589.56
2023-05-14T05:52:07.335Z,100591.72
2023-05-14T05:54:34.918Z,100597.03
2023-05-14T05:57:02.184Z,100595.66
2023-05-14T05:59:29.550Z,100588.47
2023-05-14T06:01:57.066Z,100588.75
2023-05-14T06:04:24.757Z,100588.00
2023-05-14T07:41:08.197Z,100545.69
2023-05-14T07:43:35.620Z,100539.00
2023-05-14T07:46:02.979Z,100537.72
2023-05-14T07:48:30.571Z,100544.31
2023-05-14T07:50:58.016Z,100541.78
2023-05-14T07:53:26.348Z,100549.41
2023-05-14T07:55:54.806Z,100543.88
2023-05-14T07:58:22.224Z,100532.22
2023-05-14T08:04:39.886Z,100529.00
2023-05-14T08:07:42.021Z,100527.06
2023-05-14T08:10:34.638Z,100516.25
2023-05-14T08:13:11.882Z,100510.72
2023-05-14T08:15:39.277Z,100512.03
2023-05-14T08:18:10.678Z,100513.34
2023-05-14T08:20:38.113Z,100517.97
2023-05-14T08:23:07.535Z,100517.75
2023-05-14T08:25:35.225Z,100516.75
2023-05-14T08:28:02.654Z,100518.78
2023-05-14T08:30:30.312Z,100516.31
2023-05-14T08:32:58.559Z,100516.97
2023-05-14T08:35:25.942Z,100514.75
2023-05-14T08:37:53.382Z,100506.25
2023-05-14T08:40:20.851Z,100509.59
2023-05-14T08:42:48.602Z,100513.84
2023-05-14T08:45:19.975Z,100520.41
2023-05-14T08:47:50.973Z,100512.78
2023-05-14T08:50:22.592Z,100515.22
2023-05-14T08:52:53.240Z,100517.88
2023-05-14T08:55:20.991Z,100508.09
2023-05-14T08:57:52.312Z,100509.38
2023-05-14T09:00:19.739Z,100501.16
2023-05-14T09:02:47.950Z,100502.50
2023-05-14T09:05:17.217Z,100502.06
2023-05-14T09:07:44.865Z,100496.72
2023-05-14T09:10:12.155Z,100497.91
2023-05-14T09:12:40.536Z,100500.50
2023-05-14T09:15:08.165Z,100498.38
2023-05-14T09:17:35.570Z,100495.19
2023-05-14T09:20:04.113Z,100499.41
2023-05-14T09:22:32.457Z,100504.50
2023-05-14T09:25:03.789Z,100496.34
2023-05-14T09:27:32.156Z,100497.81
2023-05-14T09:30:09.951Z,100501.97
2023-05-14T09:32:41.355Z,100500.16
2023-05-14T09:35:17.597Z,100500.91
2023-05-14T09:37:46.479Z,100502.41
2023-05-14T09:40:14.366Z,100495.81
2023-05-14T09:42:41.707Z,100493.53
2023-05-14T09:45:09.677Z,100490.28
2023-05-14T09:47:37.629Z,100475.00
2023-05-14T09:50:05.823Z,100478.69
2023-05-14T09:52:33.180Z,100479.44
2023-05-14T09:55:01.069Z,100474.59
2023-05-14T09:57:29.826Z,100476.53
2023-05-14T09:59:57.128Z,100469.59
2023-05-14T10:02:25.792Z,100465.06
2023-05-14T10:04:58.989Z,100471.91
2023-05-14T10:07:29.440Z,100474.53
2023-05-14T10:10:01.849Z,100469.69
2023-05-14T10:12:44.775Z,100464.97
2023-05-14T10:15:14.952Z,100467.84
2023-05-14T10:17:45.896Z,100463.72
2023-05-14T10:20:19.475Z,100461.56
2023-05-14T10:22:46.955Z,100473.91
2023-05-14T10:25:14.834Z,100476.78
2023-05-14T10:27:42.586Z,100476.97
2023-05-14T10:30:13.102Z,100471.72
2023-05-14T10:32:42.197Z,100468.19
2023-05-14T10:35:20.874Z,100466.44
2023-05-14T10:37:51.380Z,100470.03
2023-05-14T10:40:29.703Z,100469.25
2023-05-14T10:42:59.429Z,100459.16
2023-05-14T10:45:34.776Z,100469.63
2023-05-14T10:48:49.541Z,100462.75
2023-05-14T10:51:43.789Z,100459.59
2023-05-14T10:54:20.514Z,100464.06
2023-05-14T10:56:50.583Z,100456.16
2023-05-14T10:59:18.230Z,100450.66
2023-05-14T11:15:56.432Z,100428.31
2023-05-14T11:18:53.971Z,100427.72
2023-05-14T11:21:23.851Z,100427.06
2023-05-14T11:23:57.017Z,100435.31
2023-05-14T11:26:26.617Z,100431.19
2023-05-14T11:28:54.135Z,100432.94
2023-05-14T11:31:22.342Z,100429.06
2023-05-14T11:33:49.738Z,100427.97
2023-05-14T11:36:18.195Z,100422.44
2023-05-14T11:38:49.144Z,100425.97
2023-05-14T11:41:21.631Z,100421.81
2023-05-14T11:43:49.153Z,100418.53
2023-05-14T11:46:18.302Z,100409.28
2023-05-14T11:48:45.998Z,100410.72
2023-05-14T11:51:13.356Z,100413.63
2023-05-14T11:53:40.715Z,100414.22
2023-05-14T11:56:09.792Z,100417.63
2023-05-14T11:58:37.552Z,100406.91
2023-05-14T12:01:04.995Z,100410.72
2023-05-14T12:03:33.424Z,100402.13
2023-05-14T12:06:01.794Z,100404.66
2023-05-14T12:08:30.176Z,100401.16
2023-05-14T12:11:01.232Z,100401.13
2023-05-14T12:13:30.879Z,100390.00
2023-05-14T12:15:59.810Z,100386.13
2023-05-14T12:18:28.664Z,100395.84
2023-05-14T12:20:56.392Z,100380.88
2023-05-14T12:23:27.235Z,100385.81
2023-05-14T12:25:54.562Z,100379.28
2023-05-14T12:28:23.230Z,100379.94
2023-05-14T12:30:56.587Z,100375.81
2023-05-14T12:33:24.385Z,100366.06
2023-05-14T12:36:19.723Z,100373.56
2023-05-14T12:38:49.550Z,100379.41
2023-05-14T12:41:19.199Z,100372.25
2023-05-14T12:43:49.643Z,100378.25
2023-05-14T12:46:17.335Z,100377.56
2023-05-14T12:48:47.483Z,100373.69
2023-05-14T12:51:15.981Z,100376.91
2023-05-14T12:53:43.457Z,100373.50
2023-05-14T12:56:11.523Z,100378.34
2023-05-14T12:58:38.956Z,100372.53
2023-05-14T13:01:06.860Z,100374.88
2023-05-14T13:03:34.340Z,100368.44
2023-05-14T13:06:06.938Z,100371.84
2023-05-14T13:08:35.001Z,100370.53
2023-05-14T13:11:02.297Z,100374.53
2023-05-14T13:13:30.209Z,100372.78
2023-05-14T13:16:01.457Z,100373.41
2023-05-14T13:18:31.267Z,100369.41
2023-05-14T13:20:59.851Z,100365.09
2023-05-14T13:23:27.339Z,100367.47
2023-05-14T13:25:54.820Z,100359.47
2023-05-14T13:28:22.150Z,100354.13
2023-05-14T13:31:04.275Z,100351.69
2023-05-14T13:33:32.408Z,100344.25
2023-05-14T13:36:00.909Z,100342.75
2023-05-14T13:38:33.816Z,100336.84
2023-05-14T13:41:04.937Z,100343.88
2023-05-14T13:43:34.743Z,100337.91
2023-05-14T13:46:03.696Z,100334.28
2023-05-14T13:48:31.262Z,100334.72
2023-05-14T13:50:58.774Z,100342.59
2023-05-14T13:53:26.251Z,100339.88
2023-05-14T13:55:58.478Z,100336.56
2023-05-14T13:58:25.896Z,100326.44
2023-05-14T14:00:53.801Z,100335.88
2023-05-14T14:03:21.504Z,100327.81
2023-05-14T14:05:48.931Z,100325.47
2023-05-14T14:08:23.351Z,100325.16
2023-05-14T14:10:51.197Z,100328.00
2023-05-14T14:13:18.683Z,100312.91
2023-05-14T14:15:46.286Z,100320.78
2023-05-14T14:18:13.742Z,100320.94
2023-05-14T14:20:44.386Z,100318.09
2023-05-14T14:23:15.041Z,100329.56
2023-05-14T14:25:42.562Z,100321.88
2023-05-14T14:28:09.805Z,100318.47
2023-05-14T14:30:37.262Z,100320.19
2023-05-14T14:33:04.734Z,100310.78
2023-05-14T14:35:40.427Z,100311.97
2023-05-14T14:38:10.007Z,100317.91
2023-05-14T14:40:43.512Z,100305.63
2023-05-14T14:43:13.950Z,100300.13
2023-05-14T14:46:14.274Z,100310.97
2023-05-14T14:48:44.217Z,100307.69
2023-05-14T14:51:24.914Z,100311.69
2023-05-14T14:53:57.009Z,100302.16
2023-05-14T14:56:24.915Z,100301.59
2023-05-14T14:59:03.080Z,100302.97
2023-05-14T15:01:35.669Z,100306.19
2023-05-14T15:04:06.574Z,100305.47
2023-05-14T15:06:37.492Z,100304.59
2023-05-14T15:09:08.413Z,100311.81
2023-05-14T15:11:37.561Z,100314.66
2023-05-14T15:14:05.163Z,100313.75
2023-05-14T15:16:35.203Z,100304.53
2023-05-14T15:19:10.473Z,100310.75
2023-05-14T15:21:43.026Z,100306.78
2023-05-14T15:24:13.735Z,100314.13
2023-05-14T15:26:41.338Z,100310.03
2023-05-14T15:29:12.088Z,100315.06
2023-05-14T15:31:39.883Z,100311.16
2023-05-14T15:34:07.248Z,100318.81
2023-05-14T15:36:34.602Z,100313.81
2023-05-14T15:39:01.956Z,100318.38
2023-05-14T15:41:29.787Z,100316.28
2023-05-14T15:43:58.690Z,100314.16
2023-05-14T15:46:26.876Z,100316.69
2023-05-14T15:48:54.298Z,100319.28
2023-05-14T15:51:21.594Z,100313.50
2023-05-14T15:53:49.175Z,100315.19
2023-05-14T15:56:16.785Z,100318.09
2023-05-14T15:58:44.244Z,100317.63
2023-05-14T16:01:11.773Z,100322.22
2023-05-14T16:03:39.739Z,100319.91
2023-05-14T16:06:07.348Z,100315.69
2023-05-14T16:08:34.797Z,100318.38
2023-05-14T16:11:02.473Z,100316.22
2023-05-14T16:13:30.009Z,100323.03
2023-05-14T16:15:57.592Z,100313.16
2023-05-14T16:18:25.335Z,100321.69
2023-05-14T16:20:56.124Z,100316.84
2023-05-14T16:23:23.634Z,100328.41
2023-05-14T16:25:51.057Z,100319.03
2023-05-14T16:28:18.657Z,100315.13
2023-05-14T16:30:46.142Z,100310.72
2023-05-14T16:33:13.594Z,100310.88
2023-05-14T16:35:41.477Z,100306.38
2023-05-14T16:38:08.860Z,100313.97
2023-05-14T16:40:36.308Z,100316.84
2023-05-14T16:43:03.682Z,100327.38
2023-05-14T16:45:32.950Z,100319.34
2023-05-14T16:48:01.474Z,100314.31
2023-05-14T16:50:28.995Z,100306.19
2023-05-14T16:52:56.314Z,100304.91
2023-05-14T16:55:24.097Z,100308.22
2023-05-14T16:57:51.597Z,100305.91
2023-05-14T17:00:19.026Z,100300.19
2023-05-14T17:02:49.177Z,100303.84
2023-05-14T17:34:50.410Z,100294.81
2023-05-14T17:37:53.416Z,100297.31
2023-05-14T17:40:20.925Z,100299.59
2023-05-14T17:42:48.360Z,100291.59
2023-05-14T17:45:15.912Z,100295.31
2023-05-14T17:47:44.421Z,100295.22
2023-05-14T17:50:11.905Z,100295.22
2023-05-14T17:52:41.026Z,100302.59
2023-05-14T17:55:09.505Z,100307.34
2023-05-14T17:57:37.188Z,100306.53
2023-05-14T18:00:07.716Z,100303.84
2023-05-14T18:02:38.225Z,100305.66
2023-05-14T18:05:08.723Z,100310.94
2023-05-14T18:07:36.816Z,100309.81
2023-05-14T18:10:04.454Z,100309.88
2023-05-14T18:12:31.833Z,100307.78
2023-05-14T18:15:00.376Z,100311.53
2023-05-14T18:17:27.761Z,100309.22
2023-05-14T18:27:23.381Z,100305.47
2023-05-14T18:29:51.832Z,100302.53
2023-05-14T18:32:19.518Z,100301.66
2023-05-14T18:34:47.057Z,100307.09
2023-05-14T18:37:14.462Z,100305.22
2023-05-14T18:39:41.835Z,100309.59
2023-05-14T18:42:10.042Z,100310.88
2023-05-14T18:44:39.536Z,100312.94
2023-05-14T18:47:07.060Z,100313.94
2023-05-14T18:49:34.413Z,100305.81
2023-05-14T18:52:01.818Z,100313.75
2023-05-14T18:54:29.185Z,100320.28
2023-05-14T18:56:56.623Z,100313.09
2023-05-14T18:59:24.231Z,100317.31
2023-05-14T19:01:51.985Z,100311.38
2023-05-14T19:04:19.515Z,100316.38
2023-05-14T19:07:50.505Z,100313.31
2023-05-14T19:10:28.304Z,100316.13
2023-05-14T19:12:55.735Z,100312.38
2023-05-14T19:15:23.366Z,100314.34
2023-05-14T19:17:52.177Z,100311.75
2023-05-14T19:20:19.693Z,100318.03
2023-05-14T19:22:47.254Z,100315.44
2023-05-14T19:25:14.785Z,100324.31
2023-05-14T19:27:42.186Z,100328.63
2023-05-14T19:30:09.792Z,100330.13
2023-05-14T19:32:38.166Z,100326.53
2023-05-14T19:35:06.003Z,100334.59
2023-05-14T19:37:33.596Z,100332.47
2023-05-14T19:40:03.913Z,100333.78
2023-05-14T19:42:31.940Z,100334.09
2023-05-14T19:44:59.368Z,100332.63
2023-05-14T19:47:28.686Z,100336.63
2023-05-14T19:49:56.337Z,100336.56
2023-05-14T19:52:23.851Z,100333.94
2023-05-14T19:55:41.413Z,100326.06
2023-05-14T19:58:09.014Z,100325.03
2023-05-14T20:00:37.183Z,100324.47
2023-05-14T20:03:05.979Z,100322.84
2023-05-14T20:05:34.476Z,100329.91
2023-05-14T20:08:02.115Z,100336.44
2023-05-14T20:10:30.712Z,100338.03
2023-05-14T20:12:58.430Z,100333.31
2023-05-14T20:15:26.783Z,100342.56
2023-05-14T20:17:54.352Z,100345.13
2023-05-14T20:20:22.046Z,100353.88
2023-05-14T20:22:49.510Z,100343.59
2023-05-14T20:25:17.006Z,100347.94
2023-05-14T20:27:52.628Z,100344.22
2023-05-14T20:30:19.943Z,100344.56
2023-05-14T20:32:47.371Z,100339.56
2023-05-14T20:35:14.916Z,100347.66
2023-05-14T20:37:42.543Z,100346.91
2023-05-14T20:40:14.566Z,100339.56
2023-05-14T20:42:54.951Z,100346.84
2023-05-14T20:45:22.502Z,100343.09
2023-05-14T20:47:51.054Z,100340.94
2023-05-14T20:50:18.504Z,100338.59
2023-05-14T20:52:45.933Z,100344.78
2023-05-14T20:55:13.583Z,100343.28
2023-05-14T20:57:41.031Z,100333.50
2023-05-14T21:00:11.417Z,100337.56
2023-05-14T21:02:39.171Z,100341.75
2023-05-14T21:05:07.103Z,100339.53
2023-05-14T21:07:36.205Z,100329.88
2023-05-14T21:10:26.804Z,100333.34
2023-05-14T21:12:54.411Z,100326.41
2023-05-14T21:15:24.750Z,100325.28
2023-05-14T21:17:52.593Z,100317.81
2023-05-14T21:20:20.051Z,100318.19
2023-05-14T21:22:47.339Z,100317.88
2023-05-14T21:25:18.568Z,100311.88
2023-05-14T21:27:46.022Z,100312.19
2023-05-14T21:30:13.651Z,100313.00
2023-05-14T21:32:41.091Z,100317.53
2023-05-14T21:35:08.758Z,100313.19
2023-05-14T21:37:36.014Z,100317.72
2023-05-14T21:40:03.285Z,100315.81
2023-05-14T21:42:31.475Z,100312.31
2023-05-14T21:44:58.716Z,100318.34
2023-05-14T21:47:26.999Z,100314.47
2023-05-14T21:49:54.368Z,100317.34
2023-05-14T21:52:21.596Z,100314.88
2023-05-14T21:54:48.946Z,100309.19
2023-05-14T21:57:37.672Z,100312.31
2023-05-14T22:00:18.546Z,100311.31
2023-05-14T22:02:45.857Z,100308.34
2023-05-14T22:05:13.284Z,100306.16
2023-05-14T22:07:40.963Z,100301.19
2023-05-14T22:10:08.473Z,100298.34
2023-05-14T22:12:35.806Z,100295.78
2023-05-14T22:15:03.452Z,100289.28
2023-05-14T22:17:31.168Z,100288.63
2023-05-14T22:19:58.539Z,100291.53
2023-05-14T22:22:25.988Z,100295.97
2023-05-14T22:24:53.283Z,100283.78
2023-05-14T22:27:20.631Z,100279.03
2023-05-14T22:29:47.862Z,100279.47
2023-05-14T22:32:15.107Z,100275.84
2023-05-14T22:34:42.377Z,100279.97
2023-05-14T22:37:09.695Z,100272.47
2023-05-14T22:39:37.121Z,100267.44
2023-05-14T22:42:04.558Z,100272.50
2023-05-14T22:44:32.736Z,100259.41
2023-05-14T22:47:00.007Z,100262.31
2023-05-14T22:49:27.260Z,100263.22
2023-05-14T22:51:54.557Z,100261.28
2023-05-14T22:54:21.868Z,100263.81
2023-05-14T22:56:50.264Z,100264.34
2023-05-14T22:59:17.600Z,100269.06
2023-05-14T23:01:45.041Z,100259.44
2023-05-14T23:04:12.418Z,100269.00
2023-05-14T23:06:39.748Z,100258.81
2023-05-14T23:09:06.986Z,100258.19
2023-05-14T23:11:34.249Z,100257.78
2023-05-14T23:14:01.882Z,100256.00
2023-05-14T23:16:29.173Z,100258.00
2023-05-14T23:18:56.530Z,100255.16
2023-05-14T23:21:23.909Z,100247.72
2023-05-14T23:23:51.256Z,100251.56
2023-05-14T23:26:18.494Z,100239.00
2023-05-14T23:28:47.345Z,100239.94
2023-05-14T23:31:14.615Z,100241.03
2023-05-14T23:33:44.569Z,100244.69
2023-05-14T23:36:11.884Z,100236.69
2023-05-14T23:38:39.361Z,100226.53
2023-05-14T23:41:06.746Z,100223.59
2023-05-14T23:43:34.202Z,100219.81
2023-05-14T23:46:02.027Z,100221.72
2023-05-14T23:48:29.644Z,100227.16
2023-05-14T23:50:56.895Z,100221.69
2023-05-14T23:53:24.179Z,100217.53
2023-05-14T23:55:51.591Z,100219.22
2023-05-14T23:58:18.803Z,100208.53
